createdAt,value
2023-02-11T00:01:07.929Z,1.02
2023-02-11T00:03:35.794Z,1.03
2023-02-11T00:06:09.142Z,1.04
2023-02-11T00:08:39.110Z,1.09
2023-02-11T00:11:07.617Z,1.12
2023-02-11T00:13:35.376Z,1.16
2023-02-11T00:16:08.183Z,1.20
2023-02-11T00:18:36.370Z,1.24
2023-02-11T00:21:08.382Z,1.25
2023-02-11T00:23:36.022Z,1.29
2023-02-11T00:26:12.141Z,1.33
2023-02-11T00:28:41.267Z,1.33
2023-02-11T00:31:11.955Z,1.35
2023-02-11T00:33:39.712Z,1.37
2023-02-11T00:36:08.822Z,1.38
2023-02-11T00:38:36.665Z,1.38
2023-02-11T00:41:05.804Z,1.39
2023-02-11T00:43:33.516Z,1.40
2023-02-11T00:46:01.280Z,1.44
2023-02-11T00:48:29.090Z,1.52
2023-02-11T00:50:56.762Z,1.60
2023-02-11T00:53:25.190Z,1.68
2023-02-11T00:55:53.439Z,1.76
2023-02-11T00:58:23.002Z,1.80
2023-02-11T01:00:50.819Z,1.84
2023-02-11T01:03:18.462Z,1.91
2023-02-11T01:05:46.516Z,1.95
2023-02-11T01:08:14.207Z,1.99
2023-02-11T01:10:41.813Z,2.04
2023-02-11T01:13:09.486Z,2.08
2023-02-11T01:15:38.744Z,2.11
2023-02-11T01:18:07.007Z,2.17
2023-02-11T01:20:34.608Z,2.21
2023-02-11T01:23:02.172Z,2.29
2023-02-11T01:25:29.887Z,2.35
2023-02-11T01:27:57.474Z,2.38
2023-02-11T01:30:25.274Z,2.42
2023-02-11T01:32:54.211Z,2.46
2023-02-11T01:35:21.900Z,2.50
2023-02-11T01:37:49.493Z,2.51
2023-02-11T01:40:19.270Z,2.52
2023-02-11T01:42:48.377Z,2.55
2023-02-11T01:45:58.356Z,2.58
2023-02-11T01:48:30.797Z,2.62
2023-02-11T01:51:05.247Z,2.66
2023-02-11T01:53:52.800Z,2.68
2023-02-11T01:56:39.778Z,2.69
2023-02-11T01:59:14.247Z,2.74
2023-02-11T02:01:47.065Z,2.78
2023-02-11T02:04:19.742Z,2.80
2023-02-11T02:06:51.720Z,2.83
2023-02-11T02:09:24.685Z,2.85
2023-02-11T02:11:52.525Z,2.86
2023-02-11T02:14:20.283Z,2.86
2023-02-11T02:16:48.490Z,2.88
2023-02-11T02:19:48.799Z,2.90
2023-02-11T02:22:43.366Z,2.92
2023-02-11T02:25:24.319Z,2.92
2023-02-11T02:28:02.228Z,2.92
2023-02-11T02:30:53.041Z,2.94
2023-02-11T02:33:38.285Z,2.94
2023-02-11T02:36:14.343Z,2.94
2023-02-11T02:38:47.769Z,2.95
2023-02-11T02:41:18.756Z,2.96
2023-02-11T02:43:49.278Z,2.97
2023-02-11T02:46:19.366Z,2.98
2023-02-11T02:48:50.528Z,3.01
2023-02-11T02:51:49.258Z,3.03
2023-02-11T02:54:41.150Z,3.03
2023-02-11T02:57:25.434Z,3.05
2023-02-11T03:00:05.826Z,3.06
2023-02-11T03:02:39.195Z,3.05
2023-02-11T03:05:17.209Z,3.08
2023-02-11T03:07:53.155Z,3.09
2023-02-11T03:10:25.787Z,3.10
2023-02-11T03:12:56.139Z,3.12
2023-02-11T03:15:26.805Z,3.14
2023-02-11T03:17:59.229Z,3.16
2023-02-11T03:20:30.709Z,3.20
2023-02-11T03:23:03.264Z,3.22
2023-02-11T03:25:36.088Z,3.21
2023-02-11T03:28:10.118Z,3.21
2023-02-11T03:30:41.413Z,3.20
2023-02-11T03:33:15.313Z,3.18
2023-02-11T03:35:50.448Z,3.16
2023-02-11T03:38:23.492Z,3.15
2023-02-11T03:40:51.654Z,3.15
2023-02-11T03:43:23.047Z,3.15
2023-02-11T03:45:54.730Z,3.21
2023-02-11T03:48:27.188Z,3.23
2023-02-11T03:50:58.312Z,3.27
2023-02-11T03:53:25.909Z,3.30
2023-02-11T03:55:56.999Z,3.32
2023-02-11T03:58:24.622Z,3.35
2023-02-11T04:00:52.345Z,3.34
2023-02-11T04:03:20.139Z,3.35
2023-02-11T04:05:48.233Z,3.35
2023-02-11T04:08:17.465Z,3.36
2023-02-11T04:10:45.122Z,3.39
2023-02-11T04:13:12.719Z,3.41
2023-02-11T04:15:40.383Z,3.43
2023-02-11T04:18:08.157Z,3.46
2023-02-11T04:20:35.772Z,3.47
2023-02-11T04:23:03.581Z,3.49
2023-02-11T04:25:32.581Z,3.51
2023-02-11T04:28:00.284Z,3.54
2023-02-11T04:30:28.536Z,3.56
2023-02-11T04:32:56.163Z,3.58
2023-02-11T04:35:23.809Z,3.60
2023-02-11T04:37:51.428Z,3.63
2023-02-11T04:40:19.168Z,3.64
2023-02-11T04:42:48.149Z,3.66
2023-02-11T04:45:15.941Z,3.69
2023-02-11T04:47:43.566Z,3.69
2023-02-11T04:50:11.376Z,3.70
2023-02-11T04:52:39.141Z,3.71
2023-02-11T04:55:07.596Z,3.72
2023-02-11T04:57:35.368Z,3.73
2023-02-11T05:00:05.452Z,3.78
2023-02-11T05:02:33.337Z,3.79
2023-02-11T05:05:00.956Z,3.79
2023-02-11T05:07:28.851Z,3.81
2023-02-11T05:09:56.478Z,3.82
2023-02-11T05:12:24.110Z,3.84
2023-02-11T05:14:51.718Z,3.85
2023-02-11T05:17:20.760Z,3.86
2023-02-11T05:19:48.463Z,3.87
2023-02-11T05:22:16.074Z,3.88
2023-02-11T05:24:43.693Z,3.87
2023-02-11T05:27:11.302Z,3.89
2023-02-11T05:29:39.187Z,3.91
2023-02-11T05:32:07.414Z,3.92
2023-02-11T05:34:36.341Z,3.92
2023-02-11T05:37:04.072Z,3.92
2023-02-11T05:39:31.677Z,3.93
2023-02-11T05:41:59.351Z,3.94
2023-02-11T05:44:27.003Z,3.93
2023-02-11T05:46:54.683Z,3.93
2023-02-11T05:49:22.511Z,3.92
2023-02-11T05:51:51.483Z,3.92
2023-02-11T05:54:19.101Z,3.92
2023-02-11T05:56:46.732Z,3.91
2023-02-11T05:59:15.654Z,3.92
2023-02-11T06:01:43.354Z,3.92
2023-02-11T06:04:11.146Z,3.91
2023-02-11T06:06:38.840Z,3.92
2023-02-11T06:09:07.885Z,3.91
2023-02-11T06:11:35.504Z,3.92
2023-02-11T06:14:03.098Z,3.90
2023-02-11T06:16:30.868Z,3.89
2023-02-11T06:18:58.527Z,3.89
2023-02-11T06:21:36.303Z,3.89
2023-02-11T06:24:09.360Z,3.88
2023-02-11T06:26:37.179Z,3.89
2023-02-11T06:29:04.820Z,3.88
2023-02-11T06:31:32.708Z,3.88
2023-02-11T06:34:00.472Z,3.90
2023-02-11T06:36:28.358Z,3.91
2023-02-11T06:38:56.319Z,3.90
2023-02-11T06:41:25.331Z,3.90
2023-02-11T06:43:54.309Z,3.92
2023-02-11T06:46:22.762Z,3.93
2023-02-11T06:48:50.406Z,3.93
2023-02-11T06:51:18.097Z,3.94
2023-02-11T06:53:47.079Z,3.96
2023-02-11T06:56:17.069Z,3.93
2023-02-11T06:58:46.418Z,3.93
2023-02-11T07:01:16.581Z,3.93
2023-02-11T07:03:46.027Z,3.92
2023-02-11T07:06:15.645Z,3.92
2023-02-11T07:08:45.862Z,3.93
2023-02-11T07:11:15.493Z,3.94
2023-02-11T07:13:43.683Z,3.95
2023-02-11T07:16:15.456Z,3.96
2023-02-11T07:18:43.531Z,3.97
2023-02-11T07:21:13.602Z,3.98
2023-02-11T07:23:41.862Z,4.00
2023-02-11T07:26:11.086Z,4.02
2023-02-11T07:28:40.369Z,4.03
2023-02-11T07:31:08.999Z,4.03
2023-02-11T07:33:38.772Z,4.04
2023-02-11T07:36:08.660Z,4.05
2023-02-11T07:38:37.301Z,4.07
2023-02-11T07:41:06.918Z,4.07
2023-02-11T07:43:35.184Z,4.08
2023-02-11T07:46:04.734Z,4.09
2023-02-11T07:48:32.380Z,4.10
2023-02-11T07:51:08.565Z,4.12
2023-02-11T07:53:36.175Z,4.15
2023-02-11T07:56:04.394Z,4.17
2023-02-11T07:58:33.098Z,4.17
2023-02-11T08:01:04.577Z,4.22
2023-02-11T08:03:32.418Z,4.23
2023-02-11T08:06:00.100Z,4.26
2023-02-11T08:08:29.111Z,4.30
2023-02-11T08:10:56.723Z,4.33
2023-02-11T08:13:24.386Z,4.34
2023-02-11T08:15:52.146Z,4.37
2023-02-11T08:18:19.980Z,4.38
2023-02-11T08:20:47.587Z,4.41
2023-02-11T08:23:15.164Z,4.42
2023-02-11T08:25:44.081Z,4.43
2023-02-11T08:28:11.844Z,4.45
2023-02-11T08:30:39.485Z,4.49
2023-02-11T08:33:07.119Z,4.50
2023-02-11T08:35:36.315Z,4.54
2023-02-11T08:38:03.939Z,4.56
2023-02-11T08:40:31.696Z,4.58
2023-02-11T08:43:00.716Z,4.61
2023-02-11T08:45:28.586Z,4.63
2023-02-11T08:47:56.186Z,4.66
2023-02-11T08:50:23.950Z,4.68
2023-02-11T08:52:52.446Z,4.69
2023-02-11T08:55:20.279Z,4.72
2023-02-11T08:57:48.634Z,4.76
2023-02-11T09:00:19.261Z,4.78
2023-02-11T09:02:46.848Z,4.81
2023-02-11T09:05:14.442Z,4.84
2023-02-11T09:07:42.043Z,4.86
2023-02-11T09:10:09.913Z,4.88
2023-02-11T09:12:37.471Z,4.89
2023-02-11T09:15:05.650Z,4.92
2023-02-11T09:17:34.581Z,4.93
2023-02-11T09:20:02.355Z,4.96
2023-02-11T09:22:29.934Z,5.00
2023-02-11T09:24:57.665Z,5.02
2023-02-11T09:27:25.243Z,5.04
2023-02-11T09:29:52.935Z,5.04
2023-02-11T09:32:20.561Z,5.05
2023-02-11T09:34:49.555Z,5.08
2023-02-11T09:37:17.125Z,5.12
2023-02-11T09:39:46.251Z,5.15
2023-02-11T09:42:45.722Z,5.20
2023-02-11T09:45:18.511Z,5.24
2023-02-11T09:47:55.236Z,5.28
2023-02-11T09:50:30.024Z,5.31
2023-02-11T09:53:00.769Z,5.36
2023-02-11T09:55:30.944Z,5.36
2023-02-11T09:57:59.305Z,5.40
2023-02-11T10:00:34.362Z,5.43
2023-02-11T10:03:22.586Z,5.46
2023-02-11T10:06:06.552Z,5.48
2023-02-11T10:08:45.774Z,5.52
2023-02-11T10:11:31.629Z,5.53
2023-02-11T10:14:12.823Z,5.57
2023-02-11T10:16:54.427Z,5.59
2023-02-11T10:19:36.270Z,5.60
2023-02-11T10:22:13.509Z,5.62
2023-02-11T10:24:43.533Z,5.62
2023-02-11T10:27:17.524Z,5.61
2023-02-11T10:29:48.964Z,5.63
2023-02-11T10:32:28.064Z,5.63
2023-02-11T10:34:59.739Z,5.64
2023-02-11T10:37:28.876Z,5.67
2023-02-11T10:39:56.642Z,5.68
2023-02-11T10:42:25.938Z,5.68
2023-02-11T10:45:00.024Z,5.71
2023-02-11T10:47:32.748Z,5.72
2023-02-11T10:50:03.702Z,5.72
2023-02-11T10:52:33.021Z,5.73
2023-02-11T10:55:07.466Z,5.75
2023-02-11T10:57:38.011Z,5.78
2023-02-11T11:00:22.121Z,5.81
2023-02-11T11:02:55.688Z,5.85
2023-02-11T11:05:29.852Z,5.88
2023-02-11T11:08:00.931Z,5.91
2023-02-11T11:10:32.505Z,5.94
2023-02-11T11:13:00.144Z,5.94
2023-02-11T11:15:29.286Z,5.97
2023-02-11T11:18:21.258Z,5.99
2023-02-11T11:20:58.255Z,6.01
2023-02-11T11:23:29.005Z,6.02
2023-02-11T11:26:04.947Z,6.05
2023-02-11T11:28:38.738Z,6.06
2023-02-11T11:31:13.395Z,6.07
2023-02-11T11:33:43.771Z,6.08
2023-02-11T11:36:14.581Z,6.10
2023-02-11T11:38:50.184Z,6.11
2023-02-11T11:41:24.997Z,6.13
2023-02-11T11:43:57.825Z,6.15
2023-02-11T11:46:28.244Z,6.15
2023-02-11T11:49:02.070Z,6.17
2023-02-11T11:51:30.922Z,6.18
2023-02-11T11:54:03.837Z,6.19
2023-02-11T11:56:34.816Z,6.21
2023-02-11T11:59:07.678Z,6.24
2023-02-11T12:01:48.908Z,6.25
2023-02-11T12:04:33.396Z,6.27
2023-02-11T12:07:14.237Z,6.29
2023-02-11T12:09:54.484Z,6.33
2023-02-11T12:12:33.622Z,6.35
2023-02-11T12:15:12.815Z,6.37
2023-02-11T12:17:55.429Z,6.42
2023-02-11T12:20:37.887Z,6.46
2023-02-11T12:23:22.993Z,6.50
2023-02-11T12:26:01.185Z,6.53
2023-02-11T12:28:39.525Z,6.55
2023-02-11T12:31:20.460Z,6.56
2023-02-11T12:34:17.753Z,6.60
2023-02-11T12:37:03.179Z,6.61
2023-02-11T12:39:38.942Z,6.61
2023-02-11T12:42:51.156Z,6.63
2023-02-11T12:45:28.252Z,6.62
2023-02-11T12:48:11.056Z,6.63
2023-02-11T12:50:49.868Z,6.63
2023-02-11T12:53:35.985Z,6.62
2023-02-11T12:56:09.903Z,6.64
2023-02-11T12:58:45.567Z,6.64
2023-02-11T13:01:20.193Z,6.68
2023-02-11T13:03:53.160Z,6.72
2023-02-11T13:06:25.812Z,6.77
2023-02-11T13:08:58.466Z,6.80
2023-02-11T13:11:29.268Z,6.84
2023-02-11T13:14:03.141Z,6.83
2023-02-11T13:16:37.381Z,6.83
2023-02-11T13:19:18.756Z,6.83
2023-02-11T13:22:03.830Z,6.83
2023-02-11T13:24:42.252Z,6.83
2023-02-11T13:27:20.562Z,6.84
2023-02-11T13:30:21.214Z,6.85
2023-02-11T13:33:06.549Z,6.88
2023-02-11T13:35:36.255Z,6.90
2023-02-11T13:38:07.030Z,6.93
2023-02-11T13:40:37.609Z,7.00
2023-02-11T13:43:07.106Z,7.06
2023-02-11T13:45:41.404Z,7.15
2023-02-11T13:48:17.949Z,7.23
2023-02-11T13:50:49.433Z,7.29
2023-02-11T13:53:19.301Z,7.30
2023-02-11T13:55:49.469Z,7.30
2023-02-11T13:58:19.598Z,7.29
2023-02-11T14:00:51.591Z,7.28
2023-02-11T14:03:47.258Z,7.28
2023-02-11T14:06:36.091Z,7.28
2023-02-11T14:09:31.181Z,7.27
2023-02-11T14:12:24.564Z,7.27
2023-02-11T14:15:22.110Z,7.28
2023-02-11T14:17:52.394Z,7.28
2023-02-11T14:20:36.911Z,7.28
2023-02-11T14:23:05.379Z,7.29
2023-02-11T14:25:33.314Z,7.32
2023-02-11T14:28:11.139Z,7.33
2023-02-11T14:30:56.695Z,7.33
2023-02-11T14:33:53.259Z,7.33
2023-02-11T14:36:47.502Z,7.34
2023-02-11T14:39:25.393Z,7.33
2023-02-11T14:41:53.667Z,7.36
2023-02-11T14:44:24.192Z,7.35
2023-02-11T14:46:53.739Z,7.38
2023-02-11T14:49:27.464Z,7.38
2023-02-11T14:51:59.685Z,7.37
2023-02-11T14:54:29.618Z,7.38
2023-02-11T14:57:08.347Z,7.38
2023-02-11T14:59:36.419Z,7.38
2023-02-11T15:02:04.297Z,7.38
2023-02-11T15:04:36.406Z,7.37
2023-02-11T15:07:07.374Z,7.37
2023-02-11T15:09:41.521Z,7.36
2023-02-11T15:12:20.224Z,7.35
2023-02-11T15:14:51.674Z,7.34
2023-02-11T15:17:24.606Z,7.33
2023-02-11T15:19:55.746Z,7.30
2023-02-11T15:22:27.360Z,7.29
2023-02-11T15:25:03.764Z,7.27
2023-02-11T15:27:41.143Z,7.26
2023-02-11T15:30:25.154Z,7.24
2023-02-11T15:32:58.069Z,7.22
2023-02-11T15:35:29.181Z,7.20
2023-02-11T15:37:58.484Z,7.20
2023-02-11T15:40:29.404Z,7.18
2023-02-11T15:42:59.197Z,7.16
2023-02-11T15:45:31.708Z,7.11
2023-02-11T15:48:07.750Z,7.10
2023-02-11T15:50:40.640Z,7.07
2023-02-11T15:53:23.806Z,7.05
2023-02-11T15:55:53.445Z,7.02
2023-02-11T15:58:23.613Z,7.00
2023-02-11T16:00:54.752Z,6.99
2023-02-11T16:03:24.718Z,6.98
2023-02-11T16:05:55.529Z,6.95
2023-02-11T16:08:25.735Z,6.95
2023-02-11T16:10:58.773Z,6.92
2023-02-11T16:13:30.175Z,6.89
2023-02-11T16:16:02.426Z,6.87
2023-02-11T16:18:38.788Z,6.84
2023-02-11T16:21:16.672Z,6.82
2023-02-11T16:23:51.474Z,6.81
2023-02-11T16:26:25.594Z,6.79
2023-02-11T16:28:53.508Z,6.77
2023-02-11T16:31:21.314Z,6.76
2023-02-11T16:33:49.106Z,6.75
2023-02-11T16:36:18.336Z,6.74
2023-02-11T16:38:46.164Z,6.73
2023-02-11T16:41:14.352Z,6.71
2023-02-11T16:43:42.135Z,6.68
2023-02-11T16:46:15.001Z,6.69
2023-02-11T16:48:42.743Z,6.68
2023-02-11T16:51:12.808Z,6.67
2023-02-11T16:53:41.850Z,6.68
2023-02-11T16:56:15.339Z,6.66
2023-02-11T16:58:43.093Z,6.65
2023-02-11T17:01:13.816Z,6.64
2023-02-11T17:03:43.817Z,6.65
2023-02-11T17:06:13.537Z,6.63
2023-02-11T17:08:42.642Z,6.62
2023-02-11T17:11:10.234Z,6.63
2023-02-11T17:13:39.478Z,6.62
2023-02-11T17:16:07.435Z,6.61
2023-02-11T17:18:37.066Z,6.60
2023-02-11T17:21:07.355Z,6.61
2023-02-11T17:23:35.149Z,6.60
2023-02-11T17:26:04.250Z,6.60
2023-02-11T17:28:32.423Z,6.60
2023-02-11T17:31:00.335Z,6.59
2023-02-11T17:33:28.724Z,6.58
2023-02-11T17:35:56.345Z,6.58
2023-02-11T17:38:23.992Z,6.58
2023-02-11T17:40:58.611Z,6.56
2023-02-11T17:43:27.716Z,6.56
2023-02-11T17:45:55.630Z,6.55
2023-02-11T17:48:23.437Z,6.57
2023-02-11T17:50:51.640Z,6.55
2023-02-11T17:53:19.253Z,6.53
2023-02-11T17:55:46.858Z,6.53
2023-02-11T17:58:14.480Z,6.52
2023-02-11T18:00:43.817Z,6.52
2023-02-11T18:03:11.479Z,6.51
2023-02-11T18:05:39.176Z,6.50
2023-02-11T18:08:08.084Z,6.50
2023-02-11T18:10:35.806Z,6.49
2023-02-11T18:13:03.524Z,6.49
2023-02-11T18:15:31.330Z,6.48
2023-02-11T18:18:00.262Z,6.50
2023-02-11T18:20:28.064Z,6.48
2023-02-11T18:22:55.645Z,6.48
2023-02-11T18:25:23.381Z,6.48
2023-02-11T18:27:50.997Z,6.50
2023-02-11T18:30:21.092Z,6.50
2023-02-11T18:32:49.126Z,6.48
2023-02-11T18:35:20.047Z,6.48
2023-02-11T18:37:47.871Z,6.47
2023-02-11T18:40:16.508Z,6.45
2023-02-11T18:42:46.260Z,6.44
2023-02-11T18:45:15.018Z,6.44
2023-02-11T18:47:42.884Z,6.43
2023-02-11T18:50:13.742Z,6.43
2023-02-11T18:52:43.365Z,6.43
2023-02-11T18:55:10.960Z,6.41
2023-02-11T18:57:38.657Z,6.41
2023-02-11T19:00:07.863Z,6.40
2023-02-11T19:02:36.229Z,6.39
2023-02-11T19:05:05.813Z,6.39
2023-02-11T19:07:33.525Z,6.38
2023-02-11T19:10:06.148Z,6.37
2023-02-11T19:12:34.033Z,6.36
2023-02-11T19:15:01.665Z,6.36
2023-02-11T19:17:29.357Z,6.36
2023-02-11T19:19:56.984Z,6.34
2023-02-11T19:22:24.625Z,6.33
2023-02-11T19:24:52.248Z,6.32
2023-02-11T19:27:22.349Z,6.31
2023-02-11T19:29:49.983Z,6.31
2023-02-11T19:32:17.877Z,6.30
2023-02-11T19:34:45.542Z,6.30
2023-02-11T19:37:14.193Z,6.30
2023-02-11T19:39:42.693Z,6.30
2023-02-11T19:42:10.351Z,6.31
2023-02-11T19:44:39.305Z,6.30
2023-02-11T19:47:07.690Z,6.29
2023-02-11T19:49:35.403Z,6.29
2023-02-11T19:52:03.054Z,6.28
2023-02-11T19:54:30.810Z,6.29
2023-02-11T19:56:59.100Z,6.29
2023-02-11T19:59:26.872Z,6.28
2023-02-11T20:01:55.962Z,6.27
2023-02-11T20:04:25.077Z,6.29
2023-02-11T20:06:52.784Z,6.30
2023-02-11T20:09:21.409Z,6.30
2023-02-11T20:11:49.386Z,6.30
2023-02-11T20:14:17.143Z,6.28
2023-02-11T20:16:49.449Z,6.31
2023-02-11T20:19:21.332Z,6.33
2023-02-11T20:21:51.964Z,6.33
2023-02-11T20:24:20.529Z,6.33
2023-02-11T20:26:48.835Z,6.34
2023-02-11T20:29:17.389Z,6.34
2023-02-11T20:31:45.552Z,6.34
2023-02-11T20:34:13.426Z,6.33
2023-02-11T20:36:42.441Z,6.34
2023-02-11T20:39:17.036Z,6.34
2023-02-11T20:41:45.929Z,6.33
2023-02-11T20:44:13.665Z,6.34
2023-02-11T20:46:45.892Z,6.34
2023-02-11T20:49:14.615Z,6.34
2023-02-11T20:51:43.804Z,6.32
2023-02-11T20:54:14.245Z,6.29
2023-02-11T20:56:42.089Z,6.27
2023-02-11T20:59:09.814Z,6.26
2023-02-11T21:01:40.646Z,6.24
2023-02-11T21:04:11.545Z,6.23
2023-02-11T21:06:41.224Z,6.21
2023-02-11T21:09:13.454Z,6.22
2023-02-11T21:11:41.321Z,6.22
2023-02-11T21:14:09.950Z,6.24
2023-02-11T21:16:37.666Z,6.24
2023-02-11T21:19:05.969Z,6.23
2023-02-11T21:21:35.670Z,6.24
2023-02-11T21:24:03.564Z,6.23
2023-02-11T21:26:32.687Z,6.24
2023-02-11T21:29:00.322Z,6.25
2023-02-11T21:31:30.778Z,6.27
2023-02-11T21:33:59.489Z,6.27
2023-02-11T21:36:28.630Z,6.27
2023-02-11T21:38:56.727Z,6.29
2023-02-11T21:41:24.874Z,6.28
2023-02-11T21:43:54.378Z,6.30
2023-02-11T21:46:23.004Z,6.30
2023-02-11T21:48:51.246Z,6.31
2023-02-11T21:51:21.547Z,6.34
2023-02-11T21:53:53.250Z,6.33
2023-02-11T21:56:20.922Z,6.33
2023-02-11T21:58:54.621Z,6.34
2023-02-11T22:01:23.843Z,6.34
2023-02-11T22:03:51.880Z,6.34
2023-02-11T22:06:22.223Z,6.36
2023-02-11T22:08:50.868Z,6.36
2023-02-11T22:11:19.517Z,6.37
2023-02-11T22:13:47.800Z,6.36
2023-02-11T22:16:17.678Z,6.36
2023-02-11T22:18:46.526Z,6.40
2023-02-11T22:21:16.715Z,6.39
2023-02-11T22:23:45.313Z,6.39
2023-02-11T22:26:15.416Z,6.40
2023-02-11T22:28:43.736Z,6.41
2023-02-11T22:31:14.633Z,6.41
2023-02-11T22:33:44.237Z,6.42
2023-02-11T22:36:16.728Z,6.42
2023-02-11T22:38:44.517Z,6.41
2023-02-11T22:41:13.194Z,6.42
2023-02-11T22:43:43.088Z,6.43
2023-02-11T22:46:13.359Z,6.43
2023-02-11T22:48:41.411Z,6.43
2023-02-11T22:51:12.218Z,6.43
2023-02-11T22:53:39.911Z,6.42
2023-02-11T22:56:14.795Z,6.41
2023-02-11T22:58:43.102Z,6.41
2023-02-11T23:01:11.178Z,6.40
2023-02-11T23:03:38.850Z,6.40
2023-02-11T23:06:07.128Z,6.39
2023-02-11T23:08:36.555Z,6.38
2023-02-11T23:11:05.922Z,6.38
2023-02-11T23:13:36.166Z,6.38
2023-02-11T23:16:06.374Z,6.36
2023-02-11T23:18:34.674Z,6.36
2023-02-11T23:21:10.140Z,6.38
2023-02-11T23:23:41.067Z,6.36
2023-02-11T23:26:11.301Z,6.38
2023-02-11T23:28:39.251Z,6.37
2023-02-11T23:31:14.922Z,6.37
2023-02-11T23:33:42.670Z,6.36
2023-02-11T23:36:10.547Z,6.38
2023-02-11T23:38:38.570Z,6.38
2023-02-11T23:41:07.764Z,6.38
2023-02-11T23:43:35.698Z,6.37
2023-02-11T23:46:04.035Z,6.36
2023-02-11T23:48:31.669Z,6.38
2023-02-11T23:50:59.333Z,6.38
2023-02-11T23:53:26.953Z,6.37
2023-02-11T23:55:54.848Z,6.36
2023-02-11T23:58:23.983Z,6.36
